createdAt,value
2018-05-07T00:03:12.703Z,3.60
2018-05-07T00:07:15.253Z,3.37
2018-05-07T00:11:17.779Z,3.30
2018-05-07T00:15:21.076Z,3.70
2018-05-07T00:19:24.365Z,3.67
2018-05-07T00:23:26.887Z,3.77
2018-05-07T00:27:29.410Z,3.13
2018-05-07T00:31:31.917Z,3.60
2018-05-07T00:35:35.239Z,3.87
2018-05-07T00:39:38.530Z,3.60
2018-05-07T00:43:41.054Z,3.70
2018-05-07T00:47:43.581Z,3.80
2018-05-07T00:51:46.101Z,3.50
2018-05-07T00:55:49.391Z,3.70
2018-05-07T00:59:51.916Z,3.37
2018-05-07T01:03:54.460Z,3.83
2018-05-07T01:07:57.004Z,3.20
2018-05-07T01:11:59.516Z,3.23
2018-05-07T01:16:02.065Z,3.47
2018-05-07T01:20:04.604Z,3.80
2018-05-07T01:24:07.150Z,3.40
2018-05-07T01:28:09.687Z,3.30
2018-05-07T01:32:13.040Z,3.77
2018-05-07T01:36:15.565Z,3.93
2018-05-07T01:40:18.955Z,3.47
2018-05-07T01:44:21.479Z,4.03
2018-05-07T01:48:24.003Z,3.30
2018-05-07T01:52:26.512Z,3.43
2018-05-07T01:56:29.036Z,3.30
2018-05-07T02:00:31.562Z,3.40
2018-05-07T02:04:34.090Z,3.70
2018-05-07T02:08:37.383Z,3.47
2018-05-07T02:12:40.654Z,4.57
2018-05-07T02:16:43.239Z,3.90
2018-05-07T02:20:45.768Z,3.90
2018-05-07T02:24:48.295Z,3.87
2018-05-07T02:28:50.822Z,3.33
2018-05-07T02:32:54.103Z,3.40
2018-05-07T02:36:56.628Z,3.70
2018-05-07T02:40:59.156Z,3.33
2018-05-07T02:45:01.681Z,3.60
2018-05-07T02:49:05.322Z,3.43
2018-05-07T02:53:07.828Z,3.83
2018-05-07T02:57:10.367Z,3.50
2018-05-07T03:01:13.666Z,3.90
2018-05-07T03:05:16.956Z,3.90
2018-05-07T03:09:20.253Z,4.60
2018-05-07T03:13:22.782Z,4.20
2018-05-07T03:17:25.289Z,4.43
2018-05-07T03:21:27.815Z,4.10
2018-05-07T03:25:31.106Z,4.07
2018-05-07T03:29:33.627Z,3.70
2018-05-07T03:33:36.157Z,3.67
2018-05-07T03:37:38.659Z,3.83
2018-05-07T03:41:41.188Z,3.77
2018-05-07T03:45:43.714Z,4.40
2018-05-07T03:49:46.246Z,4.00
2018-05-07T03:53:48.783Z,4.50
2018-05-07T03:57:51.292Z,4.40
2018-05-07T04:01:54.597Z,4.53
2018-05-07T04:05:57.898Z,4.90
2018-05-07T04:10:01.193Z,4.60
2018-05-07T04:14:04.491Z,3.80
2018-05-07T04:18:18.939Z,4.20
2018-05-07T04:27:00.174Z,4.20
2018-05-07T04:31:02.731Z,4.30
2018-05-07T04:35:05.261Z,4.77
2018-05-07T04:39:08.554Z,4.13
2018-05-07T04:43:11.904Z,4.50
2018-05-07T04:47:14.382Z,4.50
2018-05-07T04:51:16.907Z,4.50
2018-05-07T04:55:19.439Z,4.97
2018-05-07T04:59:22.039Z,4.50
2018-05-07T05:03:25.122Z,4.60
2018-05-07T05:07:27.654Z,4.03
2018-05-07T05:11:30.187Z,4.60
2018-05-07T05:15:32.712Z,4.40
2018-05-07T05:19:35.245Z,4.70
2018-05-07T05:23:39.701Z,4.60
2018-05-07T05:27:42.333Z,4.80
2018-05-07T05:31:44.864Z,4.67
2018-05-07T05:35:47.399Z,4.67
2018-05-07T05:39:49.936Z,4.80
2018-05-07T05:43:52.467Z,4.40
2018-05-07T05:47:55.007Z,4.70
2018-05-07T05:51:57.527Z,4.73
2018-05-07T05:56:00.136Z,4.73
2018-05-07T06:00:02.690Z,4.43
2018-05-07T06:04:05.303Z,4.80
2018-05-07T06:08:08.528Z,4.67
2018-05-07T06:12:11.827Z,4.20
2018-05-07T06:16:15.118Z,4.20
2018-05-07T06:20:17.654Z,4.57
2018-05-07T06:24:20.931Z,4.83
2018-05-07T06:28:23.468Z,4.50
2018-05-07T06:32:25.990Z,3.67
2018-05-07T06:36:29.287Z,4.63
2018-05-07T06:40:32.583Z,4.20
2018-05-07T06:44:35.090Z,3.80
2018-05-07T06:48:37.626Z,3.77
2018-05-07T06:52:40.160Z,3.80
2018-05-07T06:56:42.692Z,3.83
2018-05-07T07:00:45.231Z,3.77
2018-05-07T07:04:48.522Z,3.40
2018-05-07T07:08:51.815Z,3.40
2018-05-07T07:12:55.103Z,3.17
2018-05-07T07:16:57.627Z,3.43
2018-05-07T07:21:00.146Z,2.90
2018-05-07T07:25:02.677Z,3.30
2018-05-07T07:29:05.971Z,3.63
2018-05-07T07:33:09.263Z,3.20
2018-05-07T07:37:11.792Z,3.27
2018-05-07T07:41:14.339Z,2.67
2018-05-07T07:45:16.862Z,3.10
2018-05-07T07:49:19.376Z,3.00
2018-05-07T07:53:21.941Z,2.90
2018-05-07T07:57:24.443Z,3.00
2018-05-07T08:01:26.969Z,2.80
2018-05-07T08:05:30.258Z,2.30
2018-05-07T08:09:32.764Z,3.03
2018-05-07T08:13:36.054Z,3.07
2018-05-07T08:17:38.577Z,2.60
2018-05-07T08:21:41.110Z,2.97
2018-05-07T08:25:43.663Z,3.20
2018-05-07T08:29:47.115Z,3.20
2018-05-07T08:33:50.402Z,3.30
2018-05-07T08:37:52.931Z,3.27
2018-05-07T08:41:55.464Z,3.10
2018-05-07T08:45:57.988Z,3.20
2018-05-07T08:50:00.512Z,3.47
2018-05-07T08:54:03.039Z,3.53
2018-05-07T08:58:06.327Z,3.53
2018-05-07T09:02:08.864Z,3.40
2018-05-07T09:06:11.401Z,3.03
2018-05-07T09:10:13.913Z,3.07
2018-05-07T09:14:16.443Z,2.60
2018-05-07T09:18:18.976Z,2.73
2018-05-07T09:22:22.275Z,2.80
2018-05-07T09:26:25.562Z,3.00
2018-05-07T09:30:28.855Z,2.50
2018-05-07T09:34:31.383Z,2.87
2018-05-07T09:38:33.916Z,2.60
2018-05-07T09:42:36.444Z,3.07
2018-05-07T09:46:38.994Z,2.87
2018-05-07T09:50:41.494Z,2.97
2018-05-07T09:54:44.788Z,2.90
2018-05-07T09:58:57.192Z,2.70
2018-05-07T10:02:59.718Z,2.60
2018-05-07T10:07:02.249Z,2.50
2018-05-07T10:11:04.790Z,3.13
2018-05-07T10:15:07.295Z,2.53
2018-05-07T10:19:09.820Z,3.00
2018-05-07T10:23:12.355Z,3.23
2018-05-07T10:27:14.883Z,3.20
2018-05-07T10:31:17.406Z,3.40
2018-05-07T10:35:19.972Z,3.47
2018-05-07T10:39:22.471Z,3.20
2018-05-07T10:43:25.767Z,3.20
2018-05-07T10:47:29.055Z,3.43
2018-05-07T10:51:31.583Z,2.87
2018-05-07T10:55:34.086Z,3.27
2018-05-07T10:59:36.607Z,2.80
2018-05-07T11:03:39.143Z,2.90
2018-05-07T11:07:41.688Z,2.27
2018-05-07T11:11:44.976Z,2.80
2018-05-07T11:15:47.487Z,3.17
2018-05-07T11:19:50.839Z,3.07
2018-05-07T11:23:53.318Z,2.40
2018-05-07T11:27:55.843Z,2.80
2018-05-07T11:31:59.131Z,3.07
2018-05-07T11:36:01.644Z,2.90
2018-05-07T11:40:04.934Z,3.30
2018-05-07T11:44:08.231Z,3.10
2018-05-07T11:48:10.771Z,3.03
2018-05-07T11:52:13.295Z,3.10
2018-05-07T11:56:15.798Z,2.90
2018-05-07T12:00:20.530Z,2.83
2018-05-07T12:04:23.818Z,3.10
2018-05-07T12:08:26.343Z,3.60
2018-05-07T12:12:28.899Z,3.30
2018-05-07T12:16:32.198Z,3.00
2018-05-07T12:20:34.703Z,2.60
2018-05-07T12:24:37.228Z,2.70
2018-05-07T12:28:39.763Z,3.13
2018-05-07T12:32:43.059Z,2.93
2018-05-07T12:36:46.351Z,2.70
2018-05-07T12:40:48.855Z,2.70
2018-05-07T12:44:52.152Z,2.63
2018-05-07T12:48:55.452Z,2.97
2018-05-07T12:52:58.783Z,3.23
2018-05-07T12:57:01.323Z,2.90
2018-05-07T13:01:03.839Z,2.40
2018-05-07T13:05:07.139Z,2.47
2018-05-07T13:09:10.447Z,2.70
2018-05-07T13:13:12.984Z,2.70
2018-05-07T13:17:15.536Z,2.57
2018-05-07T13:21:18.055Z,3.37
2018-05-07T13:25:20.587Z,2.80
2018-05-07T13:29:23.131Z,2.50
2018-05-07T13:33:25.676Z,2.30
2018-05-07T13:37:28.219Z,3.87
2018-05-07T13:41:31.487Z,3.10
2018-05-07T13:45:34.027Z,2.50
2018-05-07T13:49:36.558Z,3.00
2018-05-07T13:53:39.096Z,2.97
2018-05-07T13:57:41.628Z,2.60
2018-05-07T14:01:44.134Z,2.90
2018-05-07T14:05:47.452Z,2.65
2018-05-07T14:09:50.748Z,2.70
2018-05-07T14:13:54.057Z,2.70
2018-05-07T14:17:57.386Z,2.50
2018-05-07T14:21:59.892Z,1.80
2018-05-07T14:26:02.417Z,2.27
2018-05-07T14:30:05.740Z,2.30
2018-05-07T14:34:09.044Z,2.67
2018-05-07T14:38:11.572Z,2.20
2018-05-07T14:42:14.097Z,2.37
2018-05-07T14:46:17.387Z,2.00
2018-05-07T14:50:19.921Z,1.90
2018-05-07T14:54:22.455Z,2.03
2018-05-07T14:58:24.990Z,1.90
2018-05-07T15:02:27.515Z,2.20
2018-05-07T15:06:30.023Z,2.20
2018-05-07T15:10:33.314Z,2.00
2018-05-07T15:14:35.843Z,2.33
2018-05-07T15:18:38.375Z,1.83
2018-05-07T15:22:40.898Z,1.80
2018-05-07T15:26:43.407Z,1.87
2018-05-07T15:30:45.940Z,1.93
2018-05-07T15:34:48.488Z,1.97
2018-05-07T15:38:51.019Z,1.83
2018-05-07T15:42:54.311Z,1.80
2018-05-07T15:46:56.828Z,2.13
2018-05-07T15:50:59.354Z,1.97
2018-05-07T15:55:01.891Z,1.87
2018-05-07T15:59:05.178Z,2.22
2018-05-07T16:03:07.913Z,1.75
2018-05-07T16:07:10.241Z,2.00
2018-05-07T16:11:13.549Z,2.08
2018-05-07T16:15:16.892Z,2.00
2018-05-07T16:19:20.155Z,1.67
2018-05-07T16:23:23.696Z,1.92
2018-05-07T16:27:25.978Z,1.70
2018-05-07T16:31:28.506Z,2.30
2018-05-07T16:35:31.040Z,1.95
2018-05-07T16:39:33.577Z,1.83
2018-05-07T16:43:36.100Z,2.37
2018-05-07T16:47:38.612Z,1.85
2018-05-07T16:51:41.135Z,1.95
2018-05-07T16:55:43.665Z,1.90
2018-05-07T16:59:46.194Z,1.80
2018-05-07T17:03:48.719Z,2.00
2018-05-07T17:07:51.987Z,1.67
2018-05-07T17:11:54.546Z,1.98
2018-05-07T17:15:57.075Z,1.65
2018-05-07T17:20:00.363Z,2.10
2018-05-07T17:24:02.887Z,1.50
2018-05-07T17:28:05.441Z,1.63
2018-05-07T17:32:08.010Z,1.83
2018-05-07T17:36:10.511Z,1.90
2018-05-07T17:40:13.040Z,1.87
2018-05-07T17:44:27.475Z,1.80
2018-05-07T17:48:42.623Z,1.90
2018-05-07T17:52:45.124Z,2.13
2018-05-07T17:56:47.643Z,2.03
2018-05-07T18:00:50.167Z,2.10
2018-05-07T18:04:52.687Z,2.40
2018-05-07T18:08:55.252Z,2.13
2018-05-07T18:12:57.750Z,1.93
2018-05-07T18:17:00.275Z,2.03
2018-05-07T18:21:02.805Z,2.00
2018-05-07T18:25:05.330Z,2.07
2018-05-07T18:29:07.856Z,2.27
2018-05-07T18:33:10.363Z,1.97
2018-05-07T18:37:12.899Z,2.20
2018-05-07T18:41:15.442Z,2.23
2018-05-07T18:45:17.983Z,2.50
2018-05-07T18:49:20.506Z,2.83
2018-05-07T18:53:23.010Z,2.50
2018-05-07T18:57:26.312Z,2.50
2018-05-07T19:01:29.599Z,2.00
2018-05-07T19:05:32.125Z,2.60
2018-05-07T19:09:34.676Z,2.30
2018-05-07T19:13:37.953Z,2.27
2018-05-07T19:17:40.487Z,2.70
2018-05-07T19:21:43.027Z,2.33
2018-05-07T19:25:45.559Z,1.93
2018-05-07T19:29:48.132Z,2.30
2018-05-07T19:33:50.609Z,2.30
2018-05-07T19:37:53.906Z,2.33
2018-05-07T19:41:57.195Z,2.40
2018-05-07T19:45:59.733Z,2.23
2018-05-07T19:50:02.263Z,2.07
2018-05-07T19:54:04.862Z,2.10
2018-05-07T19:58:08.157Z,2.20
2018-05-07T20:02:10.675Z,2.00
2018-05-07T20:06:13.201Z,2.10
2018-05-07T20:10:15.733Z,2.00
2018-05-07T20:14:18.324Z,2.33
2018-05-07T20:18:20.812Z,2.10
2018-05-07T20:22:23.351Z,2.30
2018-05-07T20:26:25.883Z,2.50
2018-05-07T20:34:35.191Z,2.50
2018-05-07T20:38:37.711Z,2.77
2018-05-07T20:42:41.011Z,2.33
2018-05-07T20:46:44.296Z,2.67
2018-05-07T20:50:46.814Z,2.67
2018-05-07T20:54:49.348Z,2.57
2018-05-07T20:58:51.883Z,2.40
2018-05-07T21:02:54.427Z,2.63
2018-05-07T21:06:56.959Z,2.80
2018-05-07T21:10:59.494Z,2.80
2018-05-07T21:15:02.031Z,2.40
2018-05-07T21:19:04.537Z,2.60
2018-05-07T21:23:07.063Z,2.47
2018-05-07T21:27:09.587Z,2.70
2018-05-07T21:31:12.124Z,2.57
2018-05-07T21:35:14.655Z,3.00
2018-05-07T21:39:17.164Z,2.93
2018-05-07T21:43:19.710Z,2.60
2018-05-07T21:47:22.256Z,2.60
2018-05-07T21:51:24.789Z,2.67
2018-05-07T21:55:27.321Z,2.87
2018-05-07T21:59:29.834Z,2.70
2018-05-07T22:03:32.360Z,2.80
2018-05-07T22:07:34.891Z,3.10
2018-05-07T22:11:38.680Z,3.10
2018-05-07T22:15:41.213Z,2.97
2018-05-07T22:19:44.484Z,2.80
2018-05-07T22:23:47.007Z,2.67
2018-05-07T22:27:50.303Z,2.90
2018-05-07T22:31:52.836Z,2.80
2018-05-07T22:35:55.363Z,2.80
2018-05-07T22:39:57.911Z,3.00
2018-05-07T22:44:00.432Z,3.10
2018-05-07T22:48:03.718Z,3.10
2018-05-07T22:52:06.244Z,3.10
2018-05-07T22:56:08.788Z,3.60
2018-05-07T23:00:11.297Z,3.10
2018-05-07T23:04:14.591Z,3.00
2018-05-07T23:08:17.891Z,3.40
2018-05-07T23:12:21.200Z,3.50
2018-05-07T23:16:24.498Z,3.43
2018-05-07T23:20:27.006Z,3.57
2018-05-07T23:24:29.530Z,3.33
2018-05-07T23:28:32.060Z,3.13
2018-05-07T23:32:41.352Z,3.40
2018-05-07T23:36:43.882Z,3.10
2018-05-07T23:40:47.178Z,3.37
2018-05-07T23:44:50.452Z,3.20
2018-05-07T23:48:52.999Z,3.30
2018-05-07T23:52:55.538Z,3.03
2018-05-07T23:56:58.067Z,3.30
